Time;durP1;ratioP1;P1;durP2;ratioP2;P2;SDS_P1;SDS_P2;PMS_P1;PMS_P2;Temp;Humidity;BMP_temperature;BMP_pressure;BME280_temperature;BME280_humidity;BME280_pressure;Samples;Min_cycle;Max_cycle;Signal;HPM_P1;HPM_P2
2021/01/18 00:00:59;;;;;;;4.25;1.83;;;27.40;12.90;;;;;;5107115;28;20039;-65
2021/01/18 00:03:26;;;;;;;10.95;5.38;;;27.50;13.70;;;;;;5084565;28;20031;-65
2021/01/18 00:05:53;;;;;;;6.82;2.20;;;28.00;13.20;;;;;;5104597;28;20023;-65
2021/01/18 00:08:20;;;;;;;5.40;2.28;;;28.00;12.90;;;;;;5105441;28;20031;-66
2021/01/18 00:10:46;;;;;;;3.40;1.95;;;27.80;13.30;;;;;;5105761;28;20023;-65
2021/01/18 00:13:13;;;;;;;5.30;1.40;;;27.50;14.00;;;;;;5111792;28;20488;-65
2021/01/18 00:15:39;;;;;;;10.20;5.32;;;27.20;13.90;;;;;;5104203;28;20032;-65
2021/01/18 00:18:06;;;;;;;12.27;7.68;;;27.10;14.40;;;;;;5104948;28;20039;-65
2021/01/18 00:20:32;;;;;;;16.95;9.25;;;26.90;15.10;;;;;;5106772;28;20052;-64
2021/01/18 00:22:59;;;;;;;9.30;5.10;;;26.90;15.60;;;;;;5107637;28;20016;-64
2021/01/18 00:25:26;;;;;;;6.97;2.42;;;26.70;16.20;;;;;;5105940;28;20024;-66
2021/01/18 00:27:53;;;;;;;4.93;1.98;;;26.70;16.30;;;;;;5106604;28;20495;-66
2021/01/18 00:30:24;;;;;;;2.95;1.40;;;26.60;16.20;;;;;;5105128;28;20357;-65
2021/01/18 00:32:52;;;;;;;3.25;1.70;;;26.40;16.90;;;;;;5103265;28;20023;-65
2021/01/18 00:35:19;;;;;;;10.88;3.05;;;26.30;16.80;;;;;;5104617;28;20514;-65
2021/01/18 00:37:53;;;;;;;15.77;4.07;;;26.20;17.30;;;;;;5084811;28;20111;-64
2021/01/18 00:40:22;;;;;;;11.23;4.18;;;26.10;17.70;;;;;;5106667;28;20024;-65
2021/01/18 00:42:49;;;;;;;9.55;3.90;;;25.90;17.90;;;;;;5105862;28;20547;-65
2021/01/18 00:45:18;;;;;;;10.38;3.00;;;25.70;17.10;;;;;;5105466;28;20040;-65
2021/01/18 00:47:49;;;;;;;9.05;2.88;;;25.50;18.70;;;;;;5105938;28;20039;-64
2021/01/18 00:50:19;;;;;;;8.25;3.17;;;25.30;18.40;;;;;;5106461;28;20020;-65
2021/01/18 00:52:48;;;;;;;9.52;3.40;;;25.10;18.40;;;;;;5104618;28;20011;-65
2021/01/18 00:55:19;;;;;;;9.00;3.25;;;24.90;20.00;;;;;;5106364;28;20028;-65
2021/01/18 00:57:46;;;;;;;18.02;5.05;;;24.70;20.10;;;;;;5106140;28;20016;-64
2021/01/18 01:00:17;;;;;;;41.83;21.67;;;24.50;20.70;;;;;;5104815;28;20032;-65
2021/01/18 01:02:45;;;;;;;45.28;27.30;;;24.20;21.10;;;;;;5105257;28;20581;-65
2021/01/18 01:05:14;;;;;;;45.50;28.77;;;24.10;21.00;;;;;;5105977;28;20027;-65
2021/01/18 01:07:43;;;;;;;38.42;23.70;;;23.80;21.20;;;;;;5105859;28;20023;-65
2021/01/18 01:10:11;;;;;;;40.05;19.42;;;23.70;21.40;;;;;;5092476;28;20384;-65
2021/01/18 01:12:38;;;;;;;29.10;13.57;;;23.50;21.70;;;;;;5088797;28;20023;-65
2021/01/18 01:15:08;;;;;;;24.15;10.82;;;23.30;21.90;;;;;;5107469;28;20094;-65
2021/01/18 01:17:45;;;;;;;20.20;8.82;;;23.20;22.20;;;;;;5109116;28;20016;-64
2021/01/18 01:20:15;;;;;;;;;;;23.00;22.90;;;;;;5107337;28;20043;-66
2021/01/18 01:22:42;;;;;;;26.52;10.25;;;22.80;23.00;;;;;;5109108;28;20080;-65
2021/01/18 01:25:11;;;;;;;26.85;13.18;;;22.60;23.10;;;;;;5108338;28;20019;-66
2021/01/18 01:27:38;;;;;;;27.08;13.73;;;22.50;23.60;;;;;;5108088;27;20111;-65
2021/01/18 01:30:10;;;;;;;28.00;13.98;;;22.30;23.80;;;;;;5107493;28;20024;-65
2021/01/18 01:32:47;;;;;;;32.92;14.60;;;22.20;24.00;;;;;;5108226;28;20031;-65
2021/01/18 01:35:14;;;;;;;;;;;22.10;24.20;;;;;;5105142;28;20611;-66
2021/01/18 01:37:40;;;;;;;30.48;14.35;;;21.90;24.20;;;;;;5108139;28;19969;-68
2021/01/18 01:40:10;;;;;;;31.38;14.35;;;21.70;24.60;;;;;;5090045;28;20081;-66
2021/01/18 01:42:37;;;;;;;29.30;16.58;;;21.60;24.70;;;;;;5110404;28;20020;-66
2021/01/18 01:45:06;;;;;;;33.97;16.70;;;21.40;24.80;;;;;;5107167;28;20464;-65
2021/01/18 01:47:38;;;;;;;30.77;17.98;;;21.30;25.30;;;;;;5106052;28;20083;-65
2021/01/18 01:50:08;;;;;;;35.85;18.98;;;21.20;25.70;;;;;;5110774;28;20410;-67
2021/01/18 01:52:41;;;;;;;42.33;22.88;;;21.10;25.90;;;;;;5109525;28;20402;-66
2021/01/18 01:55:12;;;;;;;45.38;24.73;;;21.00;26.00;;;;;;5109362;28;20440;-66
2021/01/18 01:57:39;;;;;;;53.47;28.50;;;20.90;26.30;;;;;;5111008;28;20089;-66
2021/01/18 02:00:07;;;;;;;47.42;25.20;;;20.70;26.20;;;;;;5106757;28;20062;-65
2021/01/18 02:02:34;;;;;;;52.22;29.27;;;20.70;26.40;;;;;;5102402;28;20034;-67
2021/01/18 02:05:13;;;;;;;38.67;20.33;;;20.50;26.60;;;;;;5093131;28;20464;-66
2021/01/18 02:07:40;;;;;;;32.08;15.25;;;20.40;26.60;;;;;;5090887;28;20039;-66
2021/01/18 02:10:08;;;;;;;19.80;9.95;;;20.30;26.50;;;;;;5108610;28;20023;-66
2021/01/18 02:12:35;;;;;;;21.05;7.75;;;20.20;26.70;;;;;;5102411;28;20027;-65
2021/01/18 02:15:32;;;;;;;17.05;6.22;;;20.20;26.70;;;;;;5107016;28;20383;-66
2021/01/18 02:18:24;;;;;;;15.23;5.47;;;20.10;27.00;;;;;;5105990;28;20044;-65
2021/01/18 02:21:15;;;;;;;26.50;6.80;;;20.00;27.30;;;;;;5083939;28;20114;-65
2021/01/18 02:23:56;;;;;;;21.88;7.25;;;19.90;27.40;;;;;;5110496;28;20100;-64
2021/01/18 02:26:55;;;;;;;28.75;7.25;;;19.80;27.60;;;;;;5106557;28;20032;-66
2021/01/18 02:29:52;;;;;;;18.17;7.10;;;19.70;27.80;;;;;;5107626;28;20023;-66
2021/01/18 02:32:22;;;;;;;32.60;8.00;;;19.60;28.00;;;;;;5107487;28;20457;-65
2021/01/18 02:34:51;;;;;;;54.65;11.68;;;19.50;28.50;;;;;;5107389;28;20039;-66
2021/01/18 02:37:39;;;;;;;38.75;12.70;;;19.50;28.80;;;;;;5109984;28;20062;-66
2021/01/18 02:40:16;;;;;;;37.92;12.82;;;19.40;28.80;;;;;;5109001;28;20028;-65
2021/01/18 02:42:50;;;;;;;43.83;12.10;;;19.40;28.90;;;;;;5106312;28;20433;-66
2021/01/18 02:45:20;;;;;;;38.35;13.27;;;19.30;29.30;;;;;;5106237;28;20039;-64
2021/01/18 02:47:47;;;;;;;33.92;12.25;;;19.20;29.40;;;;;;5084311;28;20373;-65
2021/01/18 02:50:14;;;;;;;34.10;12.23;;;19.10;29.60;;;;;;5106331;28;20081;-65
2021/01/18 02:52:43;;;;;;;37.15;10.73;;;19.10;29.60;;;;;;5106341;28;20030;-65
2021/01/18 02:55:12;;;;;;;37.75;10.77;;;19.00;29.60;;;;;;5105418;27;20024;-65
2021/01/18 02:57:43;;;;;;;34.22;8.73;;;18.90;29.80;;;;;;5104904;28;20073;-65
2021/01/18 03:00:13;;;;;;;29.98;8.73;;;18.90;29.80;;;;;;5109188;28;20038;-66
2021/01/18 03:02:59;;;;;;;41.88;10.52;;;18.80;29.70;;;;;;5106364;28;20020;-66
2021/01/18 03:05:49;;;;;;;38.00;10.10;;;18.80;30.30;;;;;;5108065;28;21473;-66
2021/01/18 03:08:21;;;;;;;35.45;9.77;;;18.70;30.20;;;;;;5108424;28;20031;-65
2021/01/18 03:11:07;;;;;;;29.77;9.57;;;18.70;30.50;;;;;;5103202;28;20081;-65
2021/01/18 03:13:43;;;;;;;45.60;11.57;;;18.50;30.20;;;;;;5107527;28;20039;-66
2021/01/18 03:16:22;;;;;;;44.47;12.30;;;18.50;30.00;;;;;;5108804;28;20081;-65
2021/01/18 03:18:50;;;;;;;37.67;13.68;;;18.50;30.20;;;;;;5105382;28;20026;-65
2021/01/18 03:21:18;;;;;;;40.90;15.50;;;18.40;30.30;;;;;;5104259;28;20020;-65
2021/01/18 03:23:46;;;;;;;53.60;19.63;;;18.30;30.40;;;;;;5107264;28;20019;-66
2021/01/18 03:26:13;;;;;;;52.00;21.88;;;18.30;30.70;;;;;;5108176;28;20032;-66
2021/01/18 03:28:40;;;;;;;67.97;24.27;;;18.20;30.70;;;;;;5086767;28;20069;-65
2021/01/18 03:31:07;;;;;;;78.38;26.45;;;18.10;31.10;;;;;;5107764;28;20434;-65
2021/01/18 03:33:33;;;;;;;63.33;25.35;;;18.10;31.30;;;;;;5104614;28;20019;-66
2021/01/18 03:35:59;;;;;;;;;;;18.10;31.60;;;;;;5110226;28;20726;-65
2021/01/18 03:38:26;;;;;;;55.13;21.00;;;18.00;32.00;;;;;;5107851;28;20290;-66
2021/01/18 03:40:53;;;;;;;55.10;21.60;;;17.90;31.60;;;;;;5106475;28;20019;-67
2021/01/18 03:43:21;;;;;;;59.45;21.25;;;17.90;31.60;;;;;;5103850;28;20024;-65
2021/01/18 03:45:48;;;;;;;67.05;23.23;;;17.80;31.60;;;;;;5108018;28;20504;-66
2021/01/18 03:48:15;;;;;;;59.75;22.25;;;17.80;32.00;;;;;;5107892;28;20039;-67
2021/01/18 03:50:42;;;;;;;64.63;23.27;;;17.70;31.80;;;;;;5105501;28;20024;-66
2021/01/18 03:53:09;;;;;;;70.65;23.83;;;17.70;31.90;;;;;;5104721;28;20019;-66
2021/01/18 03:55:37;;;;;;;70.25;23.85;;;17.70;32.10;;;;;;5109288;28;20027;-66
2021/01/18 03:58:04;;;;;;;69.13;24.55;;;17.60;32.50;;;;;;5108459;28;20059;-66
2021/01/18 04:00:33;;;;;;;62.60;24.65;;;17.60;33.20;;;;;;5088247;28;20103;-66
2021/01/18 04:03:00;;;;;;;64.95;25.38;;;17.60;32.30;;;;;;5084797;28;20111;-67
2021/01/18 04:05:27;;;;;;;85.75;29.40;;;17.50;32.70;;;;;;5108198;28;20350;-65
2021/01/18 04:07:55;;;;;;;69.63;26.77;;;17.40;33.00;;;;;;5106301;28;20159;-66
2021/01/18 04:10:24;;;;;;;68.43;27.10;;;17.30;32.80;;;;;;5107067;28;20403;-67
2021/01/18 04:12:52;;;;;;;73.80;25.88;;;17.30;32.80;;;;;;5108141;28;20030;-66
2021/01/18 04:15:20;;;;;;;63.42;26.48;;;17.30;33.20;;;;;;5104613;28;20029;-67
2021/01/18 04:17:54;;;;;;;78.55;27.30;;;17.30;33.70;;;;;;5105347;28;20034;-65
2021/01/18 04:20:21;;;;;;;72.93;27.92;;;17.20;34.10;;;;;;5105809;28;20019;-66
2021/01/18 04:22:54;;;;;;;75.70;27.88;;;17.20;34.20;;;;;;5107121;28;20053;-67
2021/01/18 04:25:24;;;;;;;76.53;28.80;;;17.20;34.00;;;;;;5107946;28;20040;-65
2021/01/18 04:27:53;;;;;;;90.65;30.02;;;17.10;34.80;;;;;;5105255;28;20456;-66
2021/01/18 04:30:24;;;;;;;95.30;31.05;;;17.10;34.50;;;;;;5106617;28;20479;-65
2021/01/18 04:32:58;;;;;;;79.13;28.75;;;17.00;34.30;;;;;;5091520;28;20028;-65
2021/01/18 04:35:26;;;;;;;86.30;30.40;;;17.00;34.70;;;;;;5106438;28;20051;-66
2021/01/18 04:37:56;;;;;;;83.30;30.55;;;17.00;34.80;;;;;;5108998;28;20350;-66
2021/01/18 04:40:25;;;;;;;78.47;30.83;;;17.00;34.90;;;;;;5106485;28;20023;-67
2021/01/18 04:42:54;;;;;;;92.53;31.25;;;16.90;36.40;;;;;;5104097;28;20020;-66
2021/01/18 04:45:23;;;;;;;277.35;46.08;;;16.90;35.60;;;;;;5111761;28;20051;-66
2021/01/18 04:47:51;;;;;;;121.13;39.47;;;16.90;36.10;;;;;;5107805;28;20051;-67
2021/01/18 04:50:21;;;;;;;130.93;49.65;;;16.90;36.10;;;;;;5108980;28;20023;-68
2021/01/18 04:52:56;;;;;;;148.63;53.55;;;16.90;36.00;;;;;;5085858;28;20380;-66
2021/01/18 04:55:44;;;;;;;155.50;53.95;;;16.90;36.40;;;;;;5110651;28;20058;-69
2021/01/18 04:58:18;;;;;;;129.27;56.58;;;16.80;35.90;;;;;;5107179;28;20046;-65
2021/01/18 05:00:49;;;;;;;156.32;58.90;;;16.80;35.80;;;;;;5109048;28;20429;-66
2021/01/18 05:03:21;;;;;;;147.52;61.33;;;16.80;36.30;;;;;;5090030;28;20032;-67
2021/01/18 05:06:15;;;;;;;139.40;61.00;;;16.70;36.30;;;;;;5109408;28;20617;-67
2021/01/18 05:09:00;;;;;;;133.68;55.65;;;16.70;36.70;;;;;;5110810;28;20039;-66
2021/01/18 05:11:27;;;;;;;128.70;55.22;;;16.60;36.60;;;;;;5093499;28;20020;-65
2021/01/18 05:14:06;;;;;;;132.10;54.92;;;16.60;37.00;;;;;;5105275;28;20024;-66
2021/01/18 05:16:36;;;;;;;150.88;57.00;;;16.50;36.80;;;;;;5108829;28;20094;-66
2021/01/18 05:19:13;;;;;;;135.02;51.47;;;16.50;37.20;;;;;;5106318;28;20110;-66
2021/01/18 05:21:47;;;;;;;144.60;53.50;;;16.50;37.70;;;;;;5107869;28;20023;-65
2021/01/18 05:24:16;;;;;;;144.00;52.85;;;16.50;37.60;;;;;;5108276;28;20019;-66
2021/01/18 05:26:43;;;;;;;142.27;53.28;;;16.40;37.80;;;;;;5110076;28;20035;-65
2021/01/18 05:29:09;;;;;;;119.78;52.20;;;16.40;37.70;;;;;;5110840;28;20031;-65
2021/01/18 05:31:40;;;;;;;147.35;55.05;;;16.30;38.10;;;;;;5092894;28;20427;-66
2021/01/18 05:34:14;;;;;;;157.48;55.20;;;16.30;37.90;;;;;;5090440;28;20044;-67
2021/01/18 05:36:47;;;;;;;152.30;54.70;;;16.20;38.00;;;;;;5090420;28;20028;-66
2021/01/18 05:39:21;;;;;;;144.43;52.53;;;16.20;38.50;;;;;;5107092;28;20050;-66
2021/01/18 05:41:52;;;;;;;146.77;55.80;;;16.10;38.60;;;;;;5075513;28;20031;-67
2021/01/18 05:44:21;;;;;;;136.43;51.55;;;16.10;38.00;;;;;;5091307;28;20062;-66
2021/01/18 05:46:48;;;;;;;147.52;53.42;;;16.10;37.90;;;;;;5105954;28;20112;-64
2021/01/18 05:49:19;;;;;;;152.15;51.38;;;16.00;38.60;;;;;;5109551;28;20494;-65
2021/01/18 05:51:50;;;;;;;157.23;52.50;;;16.00;38.60;;;;;;5109899;28;20085;-65
2021/01/18 05:54:25;;;;;;;134.30;48.75;;;15.90;37.70;;;;;;5074889;28;20020;-65
2021/01/18 05:56:56;;;;;;;134.98;48.45;;;15.90;37.80;;;;;;5091473;28;20026;-65
2021/01/18 05:59:26;;;;;;;128.65;46.85;;;15.90;38.00;;;;;;5107738;28;20028;-66
2021/01/18 06:01:54;;;;;;;138.43;50.63;;;15.80;38.00;;;;;;5106306;28;20028;-66
2021/01/18 06:04:27;;;;;;;162.93;51.95;;;15.80;38.80;;;;;;5091334;28;20059;-66
2021/01/18 06:06:56;;;;;;;159.38;52.42;;;15.80;38.40;;;;;;5107753;28;20074;-65
2021/01/18 06:09:25;;;;;;;149.85;52.83;;;15.80;38.50;;;;;;5108145;28;20419;-66
2021/01/18 06:11:51;;;;;;;142.68;52.65;;;15.80;38.30;;;;;;5092405;28;20052;-67
2021/01/18 06:14:19;;;;;;;140.25;53.72;;;15.80;38.30;;;;;;5108318;28;20020;-65
2021/01/18 06:16:49;;;;;;;144.45;54.33;;;15.80;38.30;;;;;;5107095;28;20027;-65
2021/01/18 06:19:25;;;;;;;138.98;51.95;;;15.90;38.30;;;;;;5105577;28;20024;-66
2021/01/18 06:21:52;;;;;;;160.43;53.53;;;15.80;38.60;;;;;;5108812;28;20025;-66
2021/01/18 06:24:28;;;;;;;143.45;51.53;;;15.80;38.70;;;;;;5107285;27;20065;-66
2021/01/18 06:26:55;;;;;;;142.32;53.90;;;15.80;38.70;;;;;;5109733;28;20119;-66
2021/01/18 06:29:42;;;;;;;135.70;50.20;;;15.70;39.10;;;;;;5090973;28;20066;-66
2021/01/18 06:32:13;;;;;;;149.50;52.10;;;15.70;39.00;;;;;;5104897;28;20107;-65
2021/01/18 06:34:40;;;;;;;153.00;52.75;;;15.60;39.00;;;;;;5107121;28;20507;-66
2021/01/18 06:37:18;;;;;;;;;;;15.50;39.10;;;;;;5107773;28;20081;-66
2021/01/18 06:39:45;;;;;;;;;;;15.50;39.40;;;;;;5085277;28;19911;-65
2021/01/18 06:42:22;;;;;;;148.50;55.33;;;15.50;39.80;;;;;;5105062;28;19912;-66
2021/01/18 06:44:50;;;;;;;;;;;15.50;39.70;;;;;;5108917;28;20067;-66
2021/01/18 06:47:33;;;;;;;134.23;52.60;;;15.50;40.10;;;;;;5107329;28;20040;-65
2021/01/18 06:50:02;;;;;;;163.15;54.95;;;15.50;40.10;;;;;;5107613;28;20175;-65
2021/01/18 06:52:33;;;;;;;153.10;56.78;;;15.40;40.20;;;;;;5106087;28;20530;-64
2021/01/18 06:55:11;;;;;;;170.55;56.80;;;15.40;40.30;;;;;;5106002;28;20030;-65
2021/01/18 06:58:06;;;;;;;159.70;58.33;;;15.40;40.10;;;;;;5088179;28;20119;-65
2021/01/18 07:00:40;;;;;;;153.38;56.88;;;15.30;40.30;;;;;;5107003;28;20027;-64
2021/01/18 07:03:40;;;;;;;137.93;53.85;;;15.30;40.10;;;;;;5086084;28;20052;-66
2021/01/18 07:06:30;;;;;;;141.43;52.63;;;15.20;41.00;;;;;;5075723;28;20106;-64
2021/01/18 07:09:21;;;;;;;142.57;54.58;;;15.20;40.90;;;;;;5089671;28;20472;-65
2021/01/18 07:12:03;;;;;;;138.73;52.97;;;15.10;40.50;;;;;;5088408;28;20032;-65
2021/01/18 07:14:32;;;;;;;151.05;55.70;;;15.10;40.90;;;;;;5072482;28;20042;-64
2021/01/18 07:17:10;;;;;;;135.07;52.10;;;15.10;41.30;;;;;;5087759;28;20024;-64
2021/01/18 07:19:38;;;;;;;127.22;53.63;;;15.10;41.30;;;;;;5090493;28;20024;-64
2021/01/18 07:22:27;;;;;;;150.52;54.88;;;15.00;41.10;;;;;;5104075;28;20415;-65
2021/01/18 07:24:59;;;;;;;142.50;53.03;;;15.00;40.90;;;;;;5088908;28;20020;-65
2021/01/18 07:27:28;;;;;;;131.15;51.25;;;15.00;41.00;;;;;;5086769;28;20384;-66
2021/01/18 07:29:55;;;;;;;136.18;51.97;;;15.00;41.00;;;;;;5106567;28;20470;-65
2021/01/18 07:32:21;;;;;;;;;;;15.00;41.80;;;;;;5109147;27;20032;-66
2021/01/18 07:34:49;;;;;;;142.63;53.42;;;14.80;41.70;;;;;;5108686;28;19946;-64
2021/01/18 07:37:16;;;;;;;129.75;51.63;;;14.80;41.10;;;;;;5106031;28;20027;-64
2021/01/18 07:39:43;;;;;;;134.02;52.67;;;14.80;41.20;;;;;;5105559;28;20039;-64
2021/01/18 07:42:29;;;;;;;125.47;50.47;;;14.80;41.60;;;;;;5086240;28;20124;-64
2021/01/18 07:45:14;;;;;;;131.52;51.88;;;14.80;41.70;;;;;;5119551;27;20051;-65
2021/01/18 07:48:04;;;;;;;147.45;52.92;;;14.70;41.50;;;;;;5105862;28;20035;-65
2021/01/18 07:50:44;;;;;;;128.25;52.55;;;14.70;41.50;;;;;;5101608;27;20031;-66
2021/01/18 07:53:14;;;;;;;132.23;52.45;;;14.70;42.00;;;;;;5105827;27;20418;-65
2021/01/18 07:55:40;;;;;;;124.95;52.53;;;14.70;42.00;;;;;;5108296;28;20061;-65
2021/01/18 07:58:15;;;;;;;;;;;14.60;41.90;;;;;;5106220;28;20077;-66
2021/01/18 08:00:43;;;;;;;127.53;53.47;;;14.60;42.40;;;;;;5107130;28;19908;-64
2021/01/18 08:03:13;;;;;;;132.93;54.25;;;14.60;41.80;;;;;;5103821;28;20125;-65
2021/01/18 08:05:42;;;;;;;140.05;55.33;;;14.50;41.90;;;;;;5104414;28;20145;-65
2021/01/18 08:08:13;;;;;;;142.80;53.10;;;14.50;42.40;;;;;;5085897;28;20124;-65
2021/01/18 08:11:02;;;;;;;138.27;54.50;;;14.50;42.60;;;;;;5088621;28;20061;-65
2021/01/18 08:13:51;;;;;;;144.02;53.92;;;14.40;42.70;;;;;;5086775;28;20510;-65
2021/01/18 08:16:28;;;;;;;139.23;55.17;;;14.30;42.60;;;;;;5087909;28;20529;-65
2021/01/18 08:19:18;;;;;;;142.55;54.47;;;14.40;42.70;;;;;;5090145;28;20031;-66
2021/01/18 08:21:46;;;;;;;133.65;54.60;;;14.30;43.00;;;;;;5107064;28;20488;-67
2021/01/18 08:24:28;;;;;;;139.50;55.42;;;14.30;43.30;;;;;;5109273;28;20042;-65
2021/01/18 08:27:07;;;;;;;129.05;54.83;;;14.30;43.30;;;;;;5092145;28;20300;-64
2021/01/18 08:29:44;;;;;;;146.00;55.30;;;14.40;43.40;;;;;;5109707;28;20016;-66
2021/01/18 08:32:30;;;;;;;125.43;54.35;;;14.30;43.30;;;;;;5090713;28;20023;-65
2021/01/18 08:35:02;;;;;;;137.10;53.33;;;14.30;43.20;;;;;;5109337;28;20062;-65
2021/01/18 08:37:30;;;;;;;135.40;53.88;;;14.30;43.30;;;;;;5120982;27;20111;-65
2021/01/18 08:39:59;;;;;;;133.57;53.75;;;14.30;43.80;;;;;;5111019;28;20486;-64
2021/01/18 08:42:25;;;;;;;140.18;53.80;;;14.20;43.80;;;;;;5108796;28;20058;-64
2021/01/18 08:44:59;;;;;;;;;;;14.20;43.70;;;;;;5093671;28;20019;-65
2021/01/18 08:47:43;;;;;;;132.60;56.05;;;14.30;43.70;;;;;;5107357;28;19916;-64
2021/01/18 08:50:23;;;;;;;156.82;56.45;;;14.30;43.90;;;;;;5112781;27;20514;-65
2021/01/18 08:52:53;;;;;;;131.40;55.63;;;14.20;44.10;;;;;;5111412;28;20036;-65
2021/01/18 08:55:29;;;;;;;148.43;58.47;;;14.10;44.30;;;;;;5092667;28;20026;-65
2021/01/18 08:57:56;;;;;;;153.85;57.50;;;14.10;44.50;;;;;;5107949;28;20108;-64
2021/01/18 09:00:23;;;;;;;158.85;57.42;;;14.10;45.10;;;;;;5090303;28;20078;-64
2021/01/18 09:02:50;;;;;;;128.52;55.33;;;14.10;44.40;;;;;;5092614;27;20107;-65
2021/01/18 09:05:21;;;;;;;144.35;57.78;;;14.10;44.60;;;;;;5109953;28;20384;-65
2021/01/18 09:07:49;;;;;;;143.93;58.47;;;14.10;44.90;;;;;;5110354;27;20494;-67
2021/01/18 09:10:21;;;;;;;163.80;59.10;;;14.10;45.00;;;;;;5092779;28;20028;-65
2021/01/18 09:12:49;;;;;;;162.38;60.65;;;14.00;44.90;;;;;;5107433;27;20096;-64
2021/01/18 09:15:18;;;;;;;143.90;57.58;;;14.00;45.00;;;;;;5090901;28;20097;-64
2021/01/18 09:17:46;;;;;;;154.27;56.00;;;14.00;45.50;;;;;;5090909;28;20038;-64
2021/01/18 09:20:13;;;;;;;162.63;58.13;;;13.80;45.20;;;;;;5105568;28;20504;-64
2021/01/18 09:22:42;;;;;;;143.93;58.42;;;13.90;45.70;;;;;;5107955;28;20066;-64
2021/01/18 09:25:11;;;;;;;162.98;58.45;;;13.80;45.10;;;;;;5091083;28;20121;-65
2021/01/18 09:27:39;;;;;;;157.98;57.42;;;13.80;45.20;;;;;;5091790;28;20067;-65
2021/01/18 09:30:17;;;;;;;137.38;56.15;;;13.80;45.20;;;;;;5108924;28;20042;-64
2021/01/18 09:33:00;;;;;;;141.25;56.58;;;13.80;45.40;;;;;;5106242;27;20495;-65
2021/01/18 09:35:29;;;;;;;150.20;58.03;;;13.80;45.40;;;;;;5070081;28;20072;-65
2021/01/18 09:37:58;;;;;;;153.30;57.58;;;13.80;45.60;;;;;;5088284;28;20085;-65
2021/01/18 09:40:30;;;;;;;146.88;59.63;;;13.80;45.80;;;;;;5066094;28;20559;-65
2021/01/18 09:42:58;;;;;;;149.43;60.40;;;13.80;45.80;;;;;;5087180;28;21070;-65
2021/01/18 09:45:28;;;;;;;166.30;62.80;;;13.70;45.70;;;;;;5065031;28;20051;-65
2021/01/18 09:48:04;;;;;;;142.52;61.40;;;13.70;45.90;;;;;;5085312;28;20062;-66
2021/01/18 09:50:32;;;;;;;152.27;63.15;;;13.80;45.90;;;;;;5085221;28;20482;-64
2021/01/18 09:52:59;;;;;;;167.55;62.92;;;13.60;46.70;;;;;;5068076;28;20040;-65
2021/01/18 09:55:52;;;;;;;152.60;62.50;;;13.70;46.10;;;;;;5068077;28;20375;-65
2021/01/18 09:58:29;;;;;;;170.80;62.67;;;13.60;45.60;;;;;;5061705;28;20046;-65
2021/01/18 10:00:57;;;;;;;158.77;63.67;;;13.60;45.70;;;;;;5086144;28;20044;-65
2021/01/18 10:03:28;;;;;;;158.30;62.92;;;13.60;45.90;;;;;;5084639;28;20024;-65
2021/01/18 10:06:04;;;;;;;147.43;60.13;;;13.60;45.90;;;;;;5085045;28;20062;-64
2021/01/18 10:08:32;;;;;;;144.95;59.35;;;13.60;45.70;;;;;;5068419;28;20414;-65
2021/01/18 10:11:00;;;;;;;147.00;58.92;;;13.60;45.90;;;;;;5086982;28;20768;-64
2021/01/18 10:13:27;;;;;;;143.70;57.58;;;13.50;46.10;;;;;;5067500;28;20047;-65
2021/01/18 10:15:55;;;;;;;136.93;57.75;;;13.50;45.70;;;;;;5085514;28;20117;-65
2021/01/18 10:18:34;;;;;;;119.10;53.60;;;13.50;45.40;;;;;;5082062;28;20127;-64
2021/01/18 10:21:01;;;;;;;116.00;50.90;;;13.40;44.90;;;;;;5084586;28;20042;-66
2021/01/18 10:23:47;;;;;;;118.13;50.08;;;13.40;44.90;;;;;;5085067;28;20032;-65
2021/01/18 10:26:21;;;;;;;97.68;42.85;;;13.30;44.80;;;;;;5083619;28;20035;-65
2021/01/18 10:28:53;;;;;;;110.22;43.65;;;13.30;44.70;;;;;;5085607;28;20037;-65
2021/01/18 10:31:21;;;;;;;96.32;41.47;;;13.20;45.10;;;;;;5082490;28;20043;-65
2021/01/18 10:34:35;;;;;;;81.35;35.88;;;13.10;45.60;;;;;;5082017;28;20072;-64
2021/01/18 10:37:19;;;;;;;87.72;35.90;;;13.20;44.90;;;;;;5080736;28;20048;-65
2021/01/18 10:39:46;;;;;;;99.50;37.17;;;13.20;45.60;;;;;;5067424;28;20047;-65
2021/01/18 10:42:17;;;;;;;83.75;36.95;;;13.20;45.40;;;;;;5089143;28;20046;-64
2021/01/18 10:44:51;;;;;;;96.15;39.78;;;13.20;45.60;;;;;;5090243;28;20510;-65
2021/01/18 10:47:22;;;;;;;105.95;41.45;;;13.20;45.80;;;;;;5090652;28;20062;-64
2021/01/18 10:49:58;;;;;;;133.15;45.53;;;13.10;45.80;;;;;;5071485;28;20031;-65
2021/01/18 10:52:39;;;;;;;122.07;47.13;;;13.10;46.00;;;;;;5087487;28;20045;-65
2021/01/18 10:55:08;;;;;;;127.93;46.30;;;13.10;46.00;;;;;;5070834;28;20574;-66
2021/01/18 10:57:41;;;;;;;118.07;47.80;;;13.10;46.30;;;;;;5072397;28;20062;-64
2021/01/18 11:00:11;;;;;;;132.30;49.55;;;13.00;46.40;;;;;;5088894;28;20041;-64
2021/01/18 11:02:42;;;;;;;118.22;49.03;;;12.90;46.40;;;;;;5090269;28;20116;-64
2021/01/18 11:05:10;;;;;;;129.40;52.25;;;12.90;46.40;;;;;;5089808;28;20523;-65
2021/01/18 11:07:38;;;;;;;122.63;51.97;;;12.90;46.80;;;;;;5088282;28;21220;-66
2021/01/18 11:10:05;;;;;;;138.18;51.65;;;12.90;46.90;;;;;;5088269;28;20510;-66
2021/01/18 11:12:41;;;;;;;135.30;53.80;;;12.90;46.80;;;;;;5088568;28;20136;-65
2021/01/18 11:15:13;;;;;;;132.52;52.03;;;12.90;46.60;;;;;;5089236;28;20021;-65
2021/01/18 11:17:39;;;;;;;125.57;48.35;;;12.80;46.40;;;;;;5089206;28;20043;-65
2021/01/18 11:20:08;;;;;;;126.07;47.03;;;12.70;46.70;;;;;;5087719;28;20031;-65
2021/01/18 11:22:35;;;;;;;120.28;45.92;;;12.80;46.80;;;;;;5071216;28;20500;-65
2021/01/18 11:25:01;;;;;;;;;;;12.80;47.40;;;;;;5088007;28;20065;-65
2021/01/18 11:27:27;;;;;;;104.90;45.13;;;12.70;47.50;;;;;;5089110;28;20041;-65
2021/01/18 11:29:54;;;;;;;116.18;46.92;;;12.80;47.40;;;;;;5087812;28;20496;-65
2021/01/18 11:32:20;;;;;;;124.65;47.20;;;12.80;48.10;;;;;;5088032;28;20092;-64
2021/01/18 11:34:46;;;;;;;;;;;12.70;47.50;;;;;;5092258;28;20068;-66
2021/01/18 11:37:13;;;;;;;121.18;45.15;;;12.80;47.60;;;;;;5080510;28;19928;-65
2021/01/18 11:39:39;;;;;;;;;;;12.70;47.60;;;;;;5081371;28;20032;-65
2021/01/18 11:42:07;;;;;;;133.50;47.67;;;12.60;47.60;;;;;;5083830;28;20006;-65
2021/01/18 11:44:34;;;;;;;138.80;48.53;;;12.60;47.50;;;;;;5087991;28;20036;-64
2021/01/18 11:47:02;;;;;;;139.27;49.33;;;12.60;47.70;;;;;;5082492;28;20072;-65
2021/01/18 11:49:29;;;;;;;125.88;49.50;;;12.60;48.00;;;;;;5081944;28;20525;-64
2021/01/18 11:51:57;;;;;;;129.23;48.50;;;12.60;47.90;;;;;;5081586;28;20125;-64
2021/01/18 11:54:27;;;;;;;123.25;46.90;;;12.60;48.30;;;;;;5084338;28;20115;-65
2021/01/18 11:56:54;;;;;;;151.55;52.13;;;12.60;48.00;;;;;;5083095;28;20039;-65
2021/01/18 11:59:20;;;;;;;147.93;51.58;;;12.60;48.00;;;;;;5089929;28;20078;-65
2021/01/18 12:01:46;;;;;;;;;;;12.60;48.00;;;;;;5081103;28;20515;-65
2021/01/18 12:04:13;;;;;;;150.75;53.38;;;12.60;48.50;;;;;;5082717;28;19908;-65
2021/01/18 12:06:41;;;;;;;141.55;51.90;;;12.40;48.50;;;;;;5086455;28;20072;-64
2021/01/18 12:09:09;;;;;;;157.20;54.42;;;12.40;49.10;;;;;;5083697;28;20480;-64
2021/01/18 12:11:40;;;;;;;155.32;55.08;;;12.40;48.90;;;;;;5066161;28;20045;-64
2021/01/18 12:14:08;;;;;;;172.57;56.78;;;12.40;49.20;;;;;;5087057;28;20045;-64
2021/01/18 12:16:35;;;;;;;162.85;56.33;;;12.40;48.70;;;;;;5080535;28;20042;-64
2021/01/18 12:19:01;;;;;;;163.35;57.60;;;12.40;48.40;;;;;;5081578;28;20073;-64
2021/01/18 12:21:28;;;;;;;153.82;56.88;;;12.50;48.40;;;;;;5084317;28;20036;-64
2021/01/18 12:23:54;;;;;;;;;;;12.40;48.80;;;;;;5088694;28;20071;-64
2021/01/18 12:26:21;;;;;;;160.57;56.50;;;12.40;48.80;;;;;;5084423;28;19920;-65
2021/01/18 12:28:49;;;;;;;168.85;56.75;;;12.30;48.70;;;;;;5066971;28;20085;-64
2021/01/18 12:31:16;;;;;;;174.23;56.58;;;12.40;49.10;;;;;;5082863;28;20045;-64
2021/01/18 12:33:44;;;;;;;153.82;57.05;;;12.30;49.10;;;;;;5083567;28;20036;-64
2021/01/18 12:36:11;;;;;;;160.65;56.45;;;12.40;49.20;;;;;;5062412;28;20048;-64
2021/01/18 12:38:39;;;;;;;165.57;58.33;;;12.30;49.30;;;;;;5066167;28;20486;-63
2021/01/18 12:41:06;;;;;;;163.20;59.83;;;12.30;49.70;;;;;;5086637;28;20036;-63
2021/01/18 12:43:32;;;;;;;;;;;12.20;49.30;;;;;;5089846;28;20040;-63
2021/01/18 12:46:00;;;;;;;170.10;56.35;;;12.20;49.50;;;;;;5087753;28;20399;-64
2021/01/18 12:48:27;;;;;;;156.65;60.35;;;12.10;49.50;;;;;;5085910;28;21614;-63
2021/01/18 12:50:54;;;;;;;178.00;62.08;;;12.10;49.70;;;;;;5084090;28;20061;-64